History for KNYNEWYO585

Bryant Park, New York, NY — Current Conditions
Daily Summary for April 26, 2018
  Current: High: Low: Average:
Temperature: 59.2°F 59.4°F 57.7°F 58.6°F
Dew Point: 57.2°F 57.7°F 55.8°F 56.9°F
Humidity: 93% 94% 92% 94%
Wind Speed: 0.0mph 8.7mph - 0.2mph
Wind Gust: 0.0mph 14.8mph - -
Wind: SSW - - NW
Pressure: 29.65in 29.69in 29.64in -
Precipitation: 0.00in      
Solar Radiation: 0 watts/m^2      
UV Index: 0.0      
Statistics for the rest of the month
    High: Low: Average:
Temperature:   81.9°F 33.4°F 50.9°F
Dew Point:   59.4°F 3.0°F 30.4°F
Humidity:   98.0% 16.0% 51.0%
Wind Speed:   45.0mph from the WSW - 4.3mph
Wind Gust:   59.7mph from the WSW - -
Wind:   - - SSE
Pressure:   30.53in 29.44in -
Precipitation:   0.17in    
KNYNEWYO585 Weather Graph
Tabular Data for April 26, 2018
Time Temp. Dew Point Pressure Wind Gust Humidity Rainfall Solar Radiation
00:04 58.8°F 56.8°F 29.69in 0.0mph 93% 0.00in 0.00 watts/m^2
00:09 58.1°F 56.1°F 29.68in 0.0mph 93% 0.00in 0.00 watts/m^2
00:14 58.1°F 56.1°F 29.69in 7.4mph 93% 0.00in 0.00 watts/m^2
00:20 58.1°F 55.8°F 29.68in 0.0mph 92% 0.00in 0.00 watts/m^2
00:25 58.1°F 56.1°F 29.68in 0.0mph 93% 0.00in 0.00 watts/m^2
00:30 57.9°F 55.9°F 29.68in 0.0mph 93% 0.00in 0.00 watts/m^2
00:35 57.9°F 55.9°F 29.68in 0.0mph 93% 0.00in 0.00 watts/m^2
00:40 57.9°F 56.3°F 29.67in 0.0mph 94% 0.00in 0.00 watts/m^2
00:45 57.9°F 56.3°F 29.68in 0.0mph 94% 0.00in 0.00 watts/m^2
00:50 57.7°F 56.1°F 29.67in 0.0mph 94% 0.00in 0.00 watts/m^2
00:55 57.7°F 56.1°F 29.67in 0.0mph 94% 0.00in 0.00 watts/m^2
01:01 57.9°F 56.3°F 29.67in 0.0mph 94% 0.00in 0.00 watts/m^2
01:06 57.9°F 56.3°F 29.67in 0.0mph 94% 0.00in 0.00 watts/m^2
01:12 57.9°F 56.3°F 29.67in 0.0mph 94% 0.00in 0.00 watts/m^2
01:17 58.1°F 56.5°F 29.66in 0.0mph 94% 0.00in 0.00 watts/m^2
01:22 58.3°F 56.7°F 29.66in 0.0mph 94% 0.00in 0.00 watts/m^2
01:27 58.3°F 56.7°F 29.67in 0.0mph 94% 0.00in 0.00 watts/m^2
01:32 58.3°F 56.7°F 29.66in 0.0mph 94% 0.00in 0.00 watts/m^2
01:37 59.0°F 57.4°F 29.65in 0.0mph 94% 0.00in 0.00 watts/m^2
01:43 59.0°F 57.4°F 29.66in 0.0mph 94% 0.00in 0.00 watts/m^2
01:48 59.0°F 57.4°F 29.65in 0.0mph 94% 0.00in 0.00 watts/m^2
01:53 59.0°F 57.4°F 29.65in 0.0mph 94% 0.00in 0.00 watts/m^2
01:59 59.0°F 57.4°F 29.65in 0.0mph 94% 0.00in 0.00 watts/m^2
02:04 59.2°F 57.6°F 29.65in 0.0mph 94% 0.00in 0.00 watts/m^2
02:09 59.2°F 57.6°F 29.65in 0.0mph 94% 0.00in 0.00 watts/m^2
02:15 59.2°F 57.6°F 29.65in 0.0mph 94% 0.00in 0.00 watts/m^2
02:20 59.2°F 57.6°F 29.65in 0.0mph 94% 0.00in 0.00 watts/m^2
02:25 59.4°F 57.7°F 29.65in 0.0mph 94% 0.00in 0.00 watts/m^2
02:31 59.4°F 57.7°F 29.65in 0.0mph 94% 0.00in 0.00 watts/m^2
02:36 59.4°F 57.7°F 29.64in 0.0mph 94% 0.00in 0.00 watts/m^2
02:41 59.2°F 57.2°F 29.64in 0.0mph 93% 0.00in 0.00 watts/m^2
02:46 59.2°F 57.6°F 29.65in 0.0mph 94% 0.00in 0.00 watts/m^2
02:51 59.2°F 57.2°F 29.65in 7.4mph 93% 0.00in 0.00 watts/m^2
02:56 59.2°F 57.2°F 29.65in 0.0mph 93% 0.00in 0.00 watts/m^2
03:02 59.2°F 57.2°F 29.66in 7.4mph 93% 0.00in 0.00 watts/m^2
03:07 59.2°F 57.2°F 29.65in 0.0mph 93% 0.00in 0.00 watts/m^2
03:12 59.2°F 57.2°F 29.65in 0.0mph 93% 0.00in 0.00 watts/m^2
03:18 59.2°F 57.2°F 29.65in 0.0mph 93% 0.00in 0.00 watts/m^2
Comma Delimited File
Powered by Weather Underground, Inc.